Time;durP1;ratioP1;P1;durP2;ratioP2;P2;SDS_P1;SDS_P2;PMS_P1;PMS_P2;Temp;Humidity;BMP_temperature;BMP_pressure;BME280_temperature;BME280_humidity;BME280_pressure;Samples;Min_cycle;Max_cycle;Signal;HPM_P1;HPM_P2
2023/09/08 00:02:25;;;;;;;;;;;;;;;18.40;100.00;101733.53;4994166;28;19917;-74
2023/09/08 00:04:50;;;;;;;;;;;;;;;18.38;100.00;101742.88;4985129;28;20003;-74
2023/09/08 00:07:15;;;;;;;;;;;;;;;18.38;100.00;101738.31;4994140;28;19976;-75
2023/09/08 00:09:40;;;;;;;;;;;;;;;18.27;100.00;101733.41;5000082;28;19917;-75
2023/09/08 00:12:06;;;;;;;;;;;;;;;18.27;100.00;101744.22;4994288;28;20280;-74
2023/09/08 00:14:31;;;;;;;;;;;;;;;18.23;100.00;101737.50;4988330;28;19920;-74
2023/09/08 00:16:57;;;;;;;;;;;;;;;18.25;100.00;101733.56;4989296;28;19921;-74
2023/09/08 00:19:23;;;;;;;;;;;;;;;18.29;100.00;101737.59;5002297;28;19919;-74
2023/09/08 00:21:49;;;;;;;;;;;;;;;18.26;100.00;101732.56;4990947;28;20024;-75
2023/09/08 00:24:14;;;;;;;;;;;;;;;18.23;100.00;101732.94;4984227;28;20008;-75
2023/09/08 00:26:39;;;;;;;;;;;;;;;18.26;100.00;101729.00;4996196;28;19913;-75
2023/09/08 00:29:05;;;;;;;;;;;;;;;18.16;100.00;101726.59;4987107;28;19916;-75
2023/09/08 00:31:30;;;;;;;;;;;;;;;18.22;100.00;101728.56;4983430;28;19920;-74
2023/09/08 00:33:55;;;;;;;;;;;;;;;18.20;100.00;101717.09;4985097;28;19941;-74
2023/09/08 00:36:20;;;;;;;;;;;;;;;18.18;100.00;101723.72;4986367;28;20352;-75
2023/09/08 00:38:46;;;;;;;;;;;;;;;18.18;100.00;101726.41;4973633;28;19917;-74
2023/09/08 00:41:11;;;;;;;;;;;;;;;18.14;100.00;101721.41;4987269;28;20399;-74
2023/09/08 00:43:37;;;;;;;;;;;;;;;18.17;100.00;101716.63;4989576;28;19913;-75
2023/09/08 00:46:02;;;;;;;;;;;;;;;18.16;100.00;101718.50;4985837;28;19967;-75
2023/09/08 00:48:28;;;;;;;;;;;;;;;18.14;100.00;101712.44;4984773;28;19944;-75
2023/09/08 00:50:53;;;;;;;;;;;;;;;18.08;100.00;101697.00;4988152;28;20008;-75
2023/09/08 00:53:19;;;;;;;;;;;;;;;18.11;100.00;101707.41;4986799;28;19910;-74
2023/09/08 00:55:44;;;;;;;;;;;;;;;18.01;100.00;101696.91;4989580;28;20320;-75
2023/09/08 00:58:11;;;;;;;;;;;;;;;18.01;100.00;101718.53;4985920;28;20020;-74
2023/09/08 01:00:36;;;;;;;;;;;;;;;17.98;100.00;101715.34;4997505;28;19924;-75
2023/09/08 01:03:02;;;;;;;;;;;;;;;17.92;100.00;101719.66;4985563;28;19913;-75
2023/09/08 01:05:28;;;;;;;;;;;;;;;17.89;100.00;101711.94;4984793;28;19918;-74
2023/09/08 01:07:53;;;;;;;;;;;;;;;17.94;100.00;101725.72;4988065;28;19914;-75
2023/09/08 01:10:19;;;;;;;;;;;;;;;17.88;100.00;101718.34;4987505;28;20289;-74
2023/09/08 01:12:44;;;;;;;;;;;;;;;17.92;100.00;101714.25;4989532;28;19948;-75
2023/09/08 01:15:09;;;;;;;;;;;;;;;17.80;100.00;101710.31;4986438;28;19968;-74
2023/09/08 01:17:35;;;;;;;;;;;;;;;17.82;100.00;101721.81;5004441;28;19916;-74
2023/09/08 01:20:06;;;;;;;;;;;;;;;17.82;100.00;101713.69;4985305;28;19938;-74
2023/09/08 01:22:44;;;;;;;;;;;;;;;17.97;100.00;101728.03;5004268;28;19921;-75
2023/09/08 01:25:23;;;;;;;;;;;;;;;17.72;100.00;101712.09;4985264;28;20316;-75
2023/09/08 01:27:57;;;;;;;;;;;;;;;17.64;100.00;101701.38;4981051;28;20034;-74
2023/09/08 01:30:24;;;;;;;;;;;;;;;17.55;100.00;101701.63;4983955;28;20354;-75
2023/09/08 01:32:50;;;;;;;;;;;;;;;17.50;100.00;101705.72;4988496;28;19909;-74
2023/09/08 01:35:16;;;;;;;;;;;;;;;17.46;100.00;101722.47;4984904;28;19948;-75
2023/09/08 01:37:44;;;;;;;;;;;;;;;17.39;100.00;101714.28;4989511;28;19914;-74
2023/09/08 01:40:10;;;;;;;;;;;;;;;17.36;100.00;101719.22;4985593;28;19937;-74
2023/09/08 01:42:36;;;;;;;;;;;;;;;17.32;100.00;101729.53;4987604;28;19910;-74
2023/09/08 01:45:01;;;;;;;;;;;;;;;17.29;100.00;101725.34;4984749;28;20293;-74
2023/09/08 01:47:29;;;;;;;;;;;;;;;17.21;100.00;101721.91;4983720;28;20032;-75
2023/09/08 01:49:54;;;;;;;;;;;;;;;17.11;100.00;101726.69;4984319;28;20390;-74
2023/09/08 01:52:19;;;;;;;;;;;;;;;16.98;100.00;101720.06;4984931;28;20017;-74
2023/09/08 01:54:45;;;;;;;;;;;;;;;16.93;100.00;101718.91;4980356;28;20308;-74
2023/09/08 01:57:10;;;;;;;;;;;;;;;17.00;100.00;101714.50;4983428;28;19916;-74
2023/09/08 01:59:36;;;;;;;;;;;;;;;16.93;100.00;101713.50;4983911;28;19929;-74
2023/09/08 02:02:03;;;;;;;;;;;;;;;16.92;100.00;101714.53;4985592;28;20270;-74
2023/09/08 02:04:29;;;;;;;;;;;;;;;16.95;100.00;101716.88;4984331;28;19937;-74
2023/09/08 02:06:54;;;;;;;;;;;;;;;16.89;100.00;101702.25;4985147;28;20371;-74
2023/09/08 02:09:19;;;;;;;;;;;;;;;16.75;100.00;101703.00;4982742;28;19921;-74
2023/09/08 02:11:45;;;;;;;;;;;;;;;16.66;100.00;101707.63;4989265;28;20004;-74
2023/09/08 02:14:10;;;;;;;;;;;;;;;16.60;100.00;101713.72;4984379;28;20284;-74
2023/09/08 02:16:35;;;;;;;;;;;;;;;16.54;100.00;101709.06;4987669;28;19909;-75
2023/09/08 02:19:00;;;;;;;;;;;;;;;16.46;100.00;101709.94;4983268;28;19922;-74
2023/09/08 02:21:26;;;;;;;;;;;;;;;16.42;100.00;101703.22;4985255;28;19918;-74
2023/09/08 02:23:51;;;;;;;;;;;;;;;16.43;100.00;101708.41;4983573;28;20379;-74
2023/09/08 02:26:16;;;;;;;;;;;;;;;16.45;100.00;101710.94;4984805;28;19913;-74
2023/09/08 02:28:42;;;;;;;;;;;;;;;16.56;100.00;101712.41;4972212;28;19914;-74
2023/09/08 02:31:08;;;;;;;;;;;;;;;16.49;100.00;101706.88;4966727;28;19918;-74
2023/09/08 02:33:33;;;;;;;;;;;;;;;16.69;100.00;101723.44;4985605;28;19925;-74
2023/09/08 02:36:05;;;;;;;;;;;;;;;16.80;100.00;101720.34;4983075;28;19913;-74
2023/09/08 02:38:32;;;;;;;;;;;;;;;16.90;100.00;101719.28;4998106;28;20193;-74
2023/09/08 02:40:57;;;;;;;;;;;;;;;16.95;100.00;101693.44;4984776;28;20360;-74
2023/09/08 02:43:23;;;;;;;;;;;;;;;16.75;100.00;101690.38;4983172;28;20368;-74
2023/09/08 02:45:49;;;;;;;;;;;;;;;16.69;100.00;101699.16;4985589;28;20383;-75
2023/09/08 02:48:16;;;;;;;;;;;;;;;16.64;100.00;101699.69;4982313;28;19913;-75
2023/09/08 02:50:42;;;;;;;;;;;;;;;16.67;100.00;101703.91;4996615;23;19923;-86
2023/09/08 02:53:07;;;;;;;;;;;;;;;16.68;100.00;101705.59;4989297;28;19940;-85
2023/09/08 02:55:32;;;;;;;;;;;;;;;16.67;100.00;101695.84;4961335;28;19918;-86
2023/09/08 02:57:58;;;;;;;;;;;;;;;16.68;100.00;101695.63;4962646;28;19962;-86
2023/09/08 03:00:24;;;;;;;;;;;;;;;16.64;100.00;101688.91;4974858;28;19925;-86
2023/09/08 03:02:49;;;;;;;;;;;;;;;16.57;100.00;101687.13;4959101;28;19919;-85
2023/09/08 03:05:14;;;;;;;;;;;;;;;16.57;100.00;101681.72;4942957;28;20004;-85
2023/09/08 03:07:40;;;;;;;;;;;;;;;16.51;100.00;101682.47;4966058;28;19914;-86
2023/09/08 03:10:06;;;;;;;;;;;;;;;16.55;100.00;101695.41;4958849;28;19917;-85
2023/09/08 03:12:31;;;;;;;;;;;;;;;16.45;100.00;101689.38;4951702;28;19911;-85
2023/09/08 03:14:56;;;;;;;;;;;;;;;16.37;100.00;101684.91;4973141;23;19933;-71
2023/09/08 03:17:22;;;;;;;;;;;;;;;16.32;100.00;101684.59;4963466;28;20317;-71
2023/09/08 03:19:47;;;;;;;;;;;;;;;16.37;100.00;101681.38;4965703;28;19917;-72
2023/09/08 03:22:12;;;;;;;;;;;;;;;16.29;100.00;101668.75;4962819;28;19976;-72
2023/09/08 03:24:37;;;;;;;;;;;;;;;16.23;100.00;101666.81;4963816;28;19918;-72
2023/09/08 03:27:03;;;;;;;;;;;;;;;16.26;100.00;101677.22;4962169;28;19921;-72
2023/09/08 03:29:28;;;;;;;;;;;;;;;16.31;100.00;101677.50;4982698;23;19993;-85
2023/09/08 03:31:53;;;;;;;;;;;;;;;16.28;100.00;101672.50;4989680;28;20410;-85
2023/09/08 03:34:20;;;;;;;;;;;;;;;16.26;100.00;101661.06;4989793;28;20021;-85
2023/09/08 03:36:46;;;;;;;;;;;;;;;16.23;100.00;101664.94;4962790;28;19924;-85
2023/09/08 03:39:11;;;;;;;;;;;;;;;16.29;100.00;101665.25;4956529;28;20532;-86
2023/09/08 03:41:37;;;;;;;;;;;;;;;16.26;100.00;101669.13;4979162;28;19913;-86
2023/09/08 03:44:02;;;;;;;;;;;;;;;16.25;100.00;101667.47;4962598;28;19914;-86
2023/09/08 03:46:27;;;;;;;;;;;;;;;16.25;100.00;101665.59;4958249;28;20294;-85
2023/09/08 03:48:58;;;;;;;;;;;;;;;16.31;100.00;101666.75;4971832;28;19964;-85
2023/09/08 03:51:23;;;;;;;;;;;;;;;16.33;100.00;101664.72;4970674;28;19967;-86
2023/09/08 03:53:49;;;;;;;;;;;;;;;16.32;100.00;101657.66;4963784;28;20012;-85
2023/09/08 03:56:14;;;;;;;;;;;;;;;16.23;100.00;101638.00;4986406;28;19918;-86
2023/09/08 03:58:39;;;;;;;;;;;;;;;16.17;100.00;101643.25;4969797;28;19969;-86
2023/09/08 04:01:04;;;;;;;;;;;;;;;16.18;100.00;101643.09;4955228;28;20026;-86
2023/09/08 04:03:30;;;;;;;;;;;;;;;16.09;100.00;101646.84;4970838;28;19936;-85
2023/09/08 04:05:55;;;;;;;;;;;;;;;16.03;100.00;101642.97;4953802;28;19921;-86
2023/09/08 04:08:20;;;;;;;;;;;;;;;15.95;100.00;101634.97;4954168;28;19914;-86
2023/09/08 04:10:46;;;;;;;;;;;;;;;15.93;100.00;101634.28;4973161;28;19914;-86
2023/09/08 04:13:11;;;;;;;;;;;;;;;15.88;100.00;101647.44;4991235;28;19910;-86
2023/09/08 04:15:36;;;;;;;;;;;;;;;15.93;100.00;101647.75;4972193;28;19929;-86
2023/09/08 04:18:02;;;;;;;;;;;;;;;15.91;100.00;101644.41;4962425;28;19910;-86
2023/09/08 04:20:27;;;;;;;;;;;;;;;15.91;100.00;101644.41;4974501;28;19961;-84
2023/09/08 04:22:53;;;;;;;;;;;;;;;16.02;100.00;101643.19;4955416;28;19918;-85
2023/09/08 04:25:18;;;;;;;;;;;;;;;16.04;100.00;101641.16;4979309;28;20384;-86
2023/09/08 04:27:44;;;;;;;;;;;;;;;16.02;100.00;101641.31;4966295;28;20396;-86
2023/09/08 04:30:12;;;;;;;;;;;;;;;15.97;100.00;101641.00;4971879;28;20292;-86
2023/09/08 04:32:37;;;;;;;;;;;;;;;16.10;100.00;101643.13;4956280;28;19910;-86
2023/09/08 04:35:03;;;;;;;;;;;;;;;16.09;100.00;101629.84;4969333;28;19920;-86
2023/09/08 04:37:30;;;;;;;;;;;;;;;16.09;100.00;101629.84;4972030;28;19909;-86
2023/09/08 04:39:55;;;;;;;;;;;;;;;16.19;100.00;101630.44;4960311;28;19990;-86
2023/09/08 04:42:20;;;;;;;;;;;;;;;16.29;100.00;101631.03;4974236;28;19921;-86
2023/09/08 04:44:46;;;;;;;;;;;;;;;16.29;100.00;101625.66;4957941;28;20332;-86
2023/09/08 04:47:11;;;;;;;;;;;;;;;16.34;100.00;101617.91;4969946;28;19910;-86
2023/09/08 04:49:37;;;;;;;;;;;;;;;16.39;100.00;101625.44;4970526;28;19914;-86
2023/09/08 04:52:02;;;;;;;;;;;;;;;16.40;100.00;101608.25;4972607;28;19926;-86
2023/09/08 04:54:29;;;;;;;;;;;;;;;16.52;100.00;101614.88;4972268;28;19913;-86
2023/09/08 04:56:55;;;;;;;;;;;;;;;16.55;100.00;101610.97;4968953;28;19922;-86
2023/09/08 04:59:22;;;;;;;;;;;;;;;16.58;100.00;101610.66;4966979;28;20313;-86
2023/09/08 05:01:48;;;;;;;;;;;;;;;16.56;100.00;101601.91;4960718;28;19921;-86
2023/09/08 05:04:14;;;;;;;;;;;;;;;16.47;100.00;101601.13;4975364;28;20053;-86
2023/09/08 05:06:39;;;;;;;;;;;;;;;16.50;100.00;101599.91;4971937;28;19937;-86
2023/09/08 05:09:05;;;;;;;;;;;;;;;16.57;100.00;101601.69;4967964;28;19925;-86
2023/09/08 05:11:30;;;;;;;;;;;;;;;16.57;100.00;101596.31;4971216;28;19910;-85
2023/09/08 05:13:57;;;;;;;;;;;;;;;16.57;100.00;101595.47;4962151;28;19930;-86
2023/09/08 05:16:36;;;;;;;;;;;;;;;16.41;100.00;101605.38;4955573;28;19926;-86
2023/09/08 05:19:03;;;;;;;;;;;;;;;16.43;100.00;101606.00;4965672;28;19914;-85
2023/09/08 05:21:28;;;;;;;;;;;;;;;16.46;100.00;101616.44;4967935;28;20005;-86
2023/09/08 05:23:54;;;;;;;;;;;;;;;16.50;100.00;101622.31;4982548;28;19977;-86
2023/09/08 05:26:20;;;;;;;;;;;;;;;16.57;100.00;101620.56;4944890;28;19961;-88
2023/09/08 05:28:45;;;;;;;;;;;;;;;16.73;100.00;101638.47;4957033;28;19925;-87
2023/09/08 05:31:10;;;;;;;;;;;;;;;17.00;100.00;101639.78;4955470;28;19921;-87
2023/09/08 05:33:36;;;;;;;;;;;;;;;17.17;100.00;101632.38;4953626;28;19921;-87
2023/09/08 05:36:01;;;;;;;;;;;;;;;17.32;100.00;101623.44;4955070;28;19914;-86
2023/09/08 05:38:28;;;;;;;;;;;;;;;17.43;100.00;101598.69;4954750;28;19925;-84
2023/09/08 05:40:53;;;;;;;;;;;;;;;17.39;100.00;101584.72;4970713;28;19918;-86
2023/09/08 05:43:21;;;;;;;;;;;;;;;17.39;100.00;101573.09;4953650;28;19914;-86
2023/09/08 05:45:46;;;;;;;;;;;;;;;17.44;100.00;101576.06;4955071;28;20000;-87
2023/09/08 05:48:11;;;;;;;;;;;;;;;17.38;100.00;101555.22;4968747;28;20309;-86
2023/09/08 05:50:37;;;;;;;;;;;;;;;17.53;100.00;101558.72;4965008;28;19910;-86
2023/09/08 05:53:02;;;;;;;;;;;;;;;17.63;100.00;101562.00;4985227;28;19922;-85
2023/09/08 05:55:27;;;;;;;;;;;;;;;18.04;100.00;101572.22;4972053;28;19918;-86
2023/09/08 05:57:53;;;;;;;;;;;;;;;19.44;100.00;101540.03;4960273;28;20384;-85
2023/09/08 06:00:19;;;;;;;;;;;;;;;20.55;100.00;101415.66;4967434;28;19914;-85
2023/09/08 06:02:48;;;;;;;;;;;;;;;21.08;100.00;101268.09;4990238;28;19918;-85
2023/09/08 06:05:15;;;;;;;;;;;;;;;21.97;100.00;101181.81;4976695;28;19941;-85
2023/09/08 06:07:40;;;;;;;;;;;;;;;22.50;100.00;100919.13;4944388;29;19918;-84
2023/09/08 06:10:08;;;;;;;;;;;;;;;22.54;100.00;100827.84;4954010;28;19954;-84
2023/09/08 06:12:33;;;;;;;;;;;;;;;23.00;100.00;100787.13;4957736;28;19964;-88
2023/09/08 06:14:58;;;;;;;;;;;;;;;23.08;100.00;100686.81;4957680;28;19914;-88
2023/09/08 06:17:24;;;;;;;;;;;;;;;23.70;100.00;100557.75;4968129;28;20855;-87
2023/09/08 06:19:50;;;;;;;;;;;;;;;23.03;100.00;100346.41;4968283;28;20460;-88
2023/09/08 06:22:15;;;;;;;;;;;;;;;23.56;100.00;100553.78;4960903;28;19910;-87
2023/09/08 06:24:42;;;;;;;;;;;;;;;24.34;100.00;100444.44;4954949;28;19925;-87
2023/09/08 06:27:08;;;;;;;;;;;;;;;23.90;100.00;100300.94;4954654;28;19914;-86
2023/09/08 06:29:33;;;;;;;;;;;;;;;23.79;100.00;100282.88;4969293;28;19914;-87
2023/09/08 06:31:58;;;;;;;;;;;;;;;23.88;100.00;100466.69;4965058;28;19921;-87
2023/09/08 06:34:24;;;;;;;;;;;;;;;24.31;100.00;100496.78;4952242;28;20024;-89
2023/09/08 06:36:50;;;;;;;;;;;;;;;23.75;100.00;100475.25;4961054;28;20008;-87
2023/09/08 06:39:15;;;;;;;;;;;;;;;23.66;100.00;100332.34;4961431;28;20304;-86
2023/09/08 06:41:41;;;;;;;;;;;;;;;23.91;100.00;100280.78;4962410;28;20360;-85
2023/09/08 06:44:09;;;;;;;;;;;;;;;23.00;100.00;100363.25;4952989;28;19914;-86
2023/09/08 06:46:34;;;;;;;;;;;;;;;23.76;100.00;100545.88;4965976;28;20276;-87
2023/09/08 06:48:59;;;;;;;;;;;;;;;24.00;100.00;100428.34;4956288;28;19925;-87
2023/09/08 06:51:25;;;;;;;;;;;;;;;23.60;100.00;100444.03;4980938;28;20414;-87
2023/09/08 06:53:55;;;;;;;;;;;;;;;24.52;100.00;100462.34;4970645;28;19914;-86
2023/09/08 06:56:20;;;;;;;;;;;;;;;24.26;100.00;100426.66;4954295;28;19984;-87
2023/09/08 06:58:46;;;;;;;;;;;;;;;23.69;100.00;100315.47;4950161;28;20327;-87
2023/09/08 07:01:11;;;;;;;;;;;;;;;24.14;100.00;100349.63;4967768;28;20001;-87
2023/09/08 07:03:36;;;;;;;;;;;;;;;24.18;100.00;100425.22;4975918;28;20672;-87
2023/09/08 07:06:03;;;;;;;;;;;;;;;23.48;100.00;100314.47;4961043;28;19915;-86
2023/09/08 07:08:29;;;;;;;;;;;;;;;24.68;100.00;100513.22;4932405;28;19958;-87
2023/09/08 07:10:54;;;;;;;;;;;;;;;24.94;100.00;100336.72;4955678;28;19918;-87
2023/09/08 07:13:19;;;;;;;;;;;;;;;25.19;100.00;100387.91;4983410;28;19910;-86
2023/09/08 07:15:45;;;;;;;;;;;;;;;25.26;97.24;100245.56;4971233;28;19921;-87
2023/09/08 07:18:10;;;;;;;;;;;;;;;25.35;95.13;100133.84;4947411;28;19911;-87
2023/09/08 07:20:35;;;;;;;;;;;;;;;23.55;98.35;100016.22;4965010;28;19918;-87
2023/09/08 07:23:01;;;;;;;;;;;;;;;23.96;100.00;100430.75;4951139;28;19914;-87
2023/09/08 07:25:26;;;;;;;;;;;;;;;23.50;100.00;100195.97;4974296;28;19922;-87
2023/09/08 07:27:53;;;;;;;;;;;;;;;23.50;100.00;100601.91;4955802;28;19918;-87
2023/09/08 07:30:20;;;;;;;;;;;;;;;23.14;100.00;100495.22;4973071;28;19921;-87
2023/09/08 07:32:45;;;;;;;;;;;;;;;23.08;100.00;100398.19;4936641;28;20364;-87
2023/09/08 07:35:15;;;;;;;;;;;;;;;23.06;100.00;100465.72;4950030;28;19998;-86
2023/09/08 07:37:42;;;;;;;;;;;;;;;22.89;100.00;100437.66;4950093;28;20025;-87
2023/09/08 07:40:09;;;;;;;;;;;;;;;23.25;100.00;100616.00;4971527;28;20057;-86
2023/09/08 07:42:34;;;;;;;;;;;;;;;23.12;100.00;100616.34;4942108;28;19968;-87
2023/09/08 07:44:59;;;;;;;;;;;;;;;23.74;100.00;100702.53;4966101;28;19969;-86
2023/09/08 07:47:25;;;;;;;;;;;;;;;23.64;100.00;100587.91;4979602;28;19929;-87
2023/09/08 07:49:50;;;;;;;;;;;;;;;24.18;100.00;100542.47;4962805;28;19915;-87
2023/09/08 07:52:15;;;;;;;;;;;;;;;24.46;100.00;100520.63;4985591;28;20439;-84
2023/09/08 07:54:40;;;;;;;;;;;;;;;23.51;100.00;100232.25;4973457;28;20022;-85
2023/09/08 07:57:06;;;;;;;;;;;;;;;24.13;100.00;100577.88;4967422;28;19921;-85
2023/09/08 07:59:31;;;;;;;;;;;;;;;24.30;100.00;100512.31;4970758;28;19995;-88
2023/09/08 08:01:56;;;;;;;;;;;;;;;25.03;98.22;100443.53;4973111;28;19937;-87
2023/09/08 08:04:21;;;;;;;;;;;;;;;24.53;95.65;100136.53;4957297;28;20364;-88
2023/09/08 08:06:48;;;;;;;;;;;;;;;24.49;96.91;100291.78;4970053;28;19936;-88
2023/09/08 08:09:13;;;;;;;;;;;;;;;24.12;95.93;100156.28;4961589;28;19909;-88
2023/09/08 08:11:38;;;;;;;;;;;;;;;24.91;95.05;100265.44;4988738;28;19914;-88
2023/09/08 08:14:03;;;;;;;;;;;;;;;25.79;91.24;100187.88;4990189;28;19961;-88
2023/09/08 08:16:29;;;;;;;;;;;;;;;25.34;90.66;100126.75;4983530;28;19914;-88
2023/09/08 08:18:54;;;;;;;;;;;;;;;25.41;88.41;99991.47;4985495;28;19914;-89
2023/09/08 08:21:19;;;;;;;;;;;;;;;26.03;87.93;100093.19;4958656;28;19918;-89
2023/09/08 08:23:45;;;;;;;;;;;;;;;25.49;85.75;99793.34;4964743;28;19949;-89
2023/09/08 08:26:10;;;;;;;;;;;;;;;25.95;85.67;100003.53;4973126;28;19941;-90
2023/09/08 08:28:35;;;;;;;;;;;;;;;25.89;85.96;100029.28;4948763;28;20347;-89
2023/09/08 08:31:01;;;;;;;;;;;;;;;26.74;83.71;100055.56;4986255;28;19914;-89
2023/09/08 08:33:26;;;;;;;;;;;;;;;25.97;82.33;99730.63;4961755;28;19913;-89
2023/09/08 08:35:52;;;;;;;;;;;;;;;26.98;81.50;99972.63;4969728;28;19921;-89
2023/09/08 08:38:17;;;;;;;;;;;;;;;27.65;77.25;99718.50;4950924;28;19910;-89
2023/09/08 08:40:43;;;;;;;;;;;;;;;28.02;76.67;99779.81;4963978;28;19918;-89
2023/09/08 08:43:08;;;;;;;;;;;;;;;27.86;73.63;99444.72;4988672;28;19913;-88
2023/09/08 08:45:35;;;;;;;;;;;;;;;28.23;75.27;99799.47;4988430;28;19945;-89
2023/09/08 08:48:01;;;;;;;;;;;;;;;27.13;71.82;99104.09;4953050;28;20353;-88
2023/09/08 08:50:26;;;;;;;;;;;;;;;28.05;73.84;99732.59;4968660;28;20292;-89
2023/09/08 08:52:52;;;;;;;;;;;;;;;26.52;74.91;99438.25;4964257;28;19997;-88
2023/09/08 08:55:17;;;;;;;;;;;;;;;27.01;74.37;99531.88;4987607;28;19922;-88
2023/09/08 08:57:42;;;;;;;;;;;;;;;28.30;73.81;99904.16;4987978;28;19910;-90
2023/09/08 09:00:10;;;;;;;;;;;;;;;28.14;71.55;99577.13;4957145;28;19957;-89
2023/09/08 09:02:36;;;;;;;;;;;;;;;27.47;70.80;99302.78;4972104;28;19921;-89
2023/09/08 09:05:01;;;;;;;;;;;;;;;28.68;70.90;99708.28;4972349;28;19914;-89
2023/09/08 09:07:27;;;;;;;;;;;;;;;29.44;69.21;99739.50;4987688;28;19909;-90
2023/09/08 09:09:52;;;;;;;;;;;;;;;27.73;69.22;99254.41;4968391;28;19925;-89
2023/09/08 09:12:17;;;;;;;;;;;;;;;28.93;68.71;99657.44;4972179;28;19914;-90
2023/09/08 09:14:49;;;;;;;;;;;;;;;27.90;67.76;99144.03;4960778;28;19915;-90
2023/09/08 09:17:15;;;;;;;;;;;;;;;27.07;70.21;99254.03;4994034;23;19930;-75
2023/09/08 09:19:41;;;;;;;;;;;;;;;27.11;72.23;99571.97;4959750;28;19918;-75
2023/09/08 09:22:06;;;;;;;;;;;;;;;27.05;72.25;99556.75;4967993;28;19918;-75
2023/09/08 09:24:40;;;;;;;;;;;;;;;28.39;71.03;99832.94;4967662;28;19972;-76
2023/09/08 09:27:06;;;;;;;;;;;;;;;29.33;69.10;99833.50;4968383;28;20320;-76
2023/09/08 09:29:32;;;;;;;;;;;;;;;28.75;67.63;99461.50;4977762;23;19913;-89
2023/09/08 09:32:02;;;;;;;;;;;;;;;29.73;66.44;99613.66;5018424;28;19948;-90
2023/09/08 09:34:27;;;;;;;;;;;;;;;28.83;67.05;99339.91;5017063;28;19914;-89
2023/09/08 09:36:53;;;;;;;;;;;;;;;29.02;66.08;99329.47;5004625;28;20000;-91
2023/09/08 09:39:26;;;;;;;;;;;;;;;27.83;68.57;99359.47;5028833;28;19909;-89
2023/09/08 09:41:55;;;;;;;;;;;;;;;27.20;68.12;99090.78;4995335;28;19913;-89
2023/09/08 09:44:21;;;;;;;;;;;;;;;28.32;67.94;99498.50;5020632;28;19957;-90
2023/09/08 09:46:46;;;;;;;;;;;;;;;28.61;67.31;99484.38;4990921;28;19945;-90
2023/09/08 09:49:13;;;;;;;;;;;;;;;28.58;66.65;99372.44;4999785;28;19949;-90
2023/09/08 09:51:45;;;;;;;;;;;;;;;29.05;65.91;99448.88;4998169;28;19909;-89
2023/09/08 09:54:11;;;;;;;;;;;;;;;27.65;67.78;99298.22;4999731;28;19917;-87
2023/09/08 09:56:37;;;;;;;;;;;;;;;29.05;66.08;99567.84;5002642;28;20857;-89
2023/09/08 09:59:03;;;;;;;;;;;;;;;30.02;64.12;99591.09;5001066;28;19921;-90
2023/09/08 10:01:29;;;;;;;;;;;;;;;29.61;63.00;99248.50;4999370;28;20008;-89
2023/09/08 10:03:55;;;;;;;;;;;;;;;29.31;64.14;99336.31;5010678;28;19972;-91
2023/09/08 10:06:20;;;;;;;;;;;;;;;28.47;63.69;98953.91;4986683;28;19914;-90
2023/09/08 10:08:46;;;;;;;;;;;;;;;28.37;66.07;99415.25;4998728;28;20419;-90
2023/09/08 10:11:12;;;;;;;;;;;;;;;29.47;64.16;99446.63;5004950;28;20450;-89
2023/09/08 10:13:45;;;;;;;;;;;;;;;29.76;63.13;99414.97;5001215;28;19913;-89
2023/09/08 10:16:13;;;;;;;;;;;;;;;29.67;62.38;99219.75;5004354;28;19944;-90
2023/09/08 10:18:39;;;;;;;;;;;;;;;29.26;61.41;99020.44;4989848;28;19960;-89
2023/09/08 10:21:06;;;;;;;;;;;;;;;28.53;61.34;98740.44;5002447;28;19913;-90
2023/09/08 10:23:34;;;;;;;;;;;;;;;28.10;64.44;99043.94;4993638;28;19913;-89
2023/09/08 10:26:03;;;;;;;;;;;;;;;28.82;63.37;99129.56;5018643;28;19956;-91
2023/09/08 10:28:28;;;;;;;;;;;;;;;28.22;64.92;99198.88;4992837;28;20391;-90
2023/09/08 10:30:54;;;;;;;;;;;;;;;28.90;64.24;99373.22;4977811;28;19940;-89
2023/09/08 10:33:20;;;;;;;;;;;;;;;28.33;65.31;99260.56;5026515;28;19921;-89
2023/09/08 10:35:45;;;;;;;;;;;;;;;28.62;62.90;99035.75;5010668;28;19924;-90
2023/09/08 10:38:26;;;;;;;;;;;;;;;28.25;63.76;99014.41;4993375;28;20394;-89
2023/09/08 10:40:52;;;;;;;;;;;;;;;28.20;63.67;99042.81;5002541;28;19920;-88
2023/09/08 10:43:18;;;;;;;;;;;;;;;28.80;62.79;99178.53;4989587;28;19941;-88
2023/09/08 10:45:43;;;;;;;;;;;;;;;29.29;63.19;99447.69;5008498;28;19941;-88
2023/09/08 10:48:09;;;;;;;;;;;;;;;29.44;62.91;99404.09;4993279;28;20004;-88
2023/09/08 10:50:35;;;;;;;;;;;;;;;30.81;60.36;99471.59;4993101;28;19914;-88
2023/09/08 10:53:26;;;;;;;;;;;;;;;31.63;59.15;99550.59;5003735;28;20056;-89
2023/09/08 10:55:53;;;;;;;;;;;;;;;29.52;59.30;98838.09;5007008;28;20261;-90
2023/09/08 10:58:39;;;;;;;;;;;;;;;29.08;59.57;98818.34;4992778;28;20506;-91
2023/09/08 11:01:05;;;;;;;;;;;;;;;29.92;60.76;99308.81;5004833;28;19917;-89
2023/09/08 11:03:37;;;;;;;;;;;;;;;29.99;59.64;99124.84;5006172;28;19913;-88
2023/09/08 11:06:02;;;;;;;;;;;;;;;29.97;59.52;99118.03;4994731;28;19914;-90
2023/09/08 11:08:27;;;;;;;;;;;;;;;29.60;58.90;98883.97;4997805;28;19909;-89
2023/09/08 11:10:54;;;;;;;;;;;;;;;29.29;59.45;98810.13;5009687;28;20382;-88
2023/09/08 11:13:19;;;;;;;;;;;;;;;30.26;59.88;99298.91;5003403;28;19963;-88
2023/09/08 11:15:44;;;;;;;;;;;;;;;29.35;59.45;98812.34;5005811;28;19999;-89
2023/09/08 11:18:10;;;;;;;;;;;;;;;29.93;59.16;99126.16;5002605;28;19914;-90
2023/09/08 11:20:35;;;;;;;;;;;;;;;29.24;59.41;98805.63;5009626;28;19923;-90
2023/09/08 11:23:00;;;;;;;;;;;;;;;29.81;60.24;99162.59;4992631;28;20339;-90
2023/09/08 11:25:26;;;;;;;;;;;;;;;30.31;60.14;99413.53;4998426;28;19953;-89
2023/09/08 11:27:51;;;;;;;;;;;;;;;30.22;59.16;99185.88;4997375;28;20739;-91
2023/09/08 11:30:17;;;;;;;;;;;;;;;30.76;59.16;99443.38;5003997;28;19920;-90
2023/09/08 11:32:42;;;;;;;;;;;;;;;31.44;57.83;99444.25;4989664;28;20010;-90
2023/09/08 11:35:09;;;;;;;;;;;;;;;31.86;55.38;99107.66;5009078;28;20032;-90
2023/09/08 11:37:41;;;;;;;;;;;;;;;30.75;56.79;98874.38;5000272;28;19972;-90
2023/09/08 11:40:12;;;;;;;;;;;;;;;30.14;56.96;98773.97;4997196;28;19918;-89
2023/09/08 11:42:38;;;;;;;;;;;;;;;30.38;57.09;98883.34;4994907;28;19972;-90
2023/09/08 11:45:04;;;;;;;;;;;;;;;31.98;56.49;99409.66;4976959;28;20008;-90
2023/09/08 11:47:29;;;;;;;;;;;;;;;30.25;54.06;98222.03;4997801;28;19921;-89
2023/09/08 11:49:54;;;;;;;;;;;;;;;30.45;56.00;98754.19;5000566;28;19909;-89
2023/09/08 11:52:23;;;;;;;;;;;;;;;29.78;56.44;98613.25;5001064;28;19952;-90
2023/09/08 11:54:48;;;;;;;;;;;;;;;31.13;55.81;99092.56;4992582;28;19921;-91
2023/09/08 11:57:14;;;;;;;;;;;;;;;30.54;55.01;98670.69;5000538;28;19913;-90
2023/09/08 11:59:40;;;;;;;;;;;;;;;31.80;53.96;99026.28;4992402;28;19909;-90
2023/09/08 12:02:06;;;;;;;;;;;;;;;30.29;54.64;98536.66;5005032;28;19918;-90
2023/09/08 12:04:34;;;;;;;;;;;;;;;31.44;54.40;98956.19;4981695;28;19913;-90
2023/09/08 12:07:00;;;;;;;;;;;;;;;31.28;54.20;98884.41;5009621;28;19957;-90
2023/09/08 12:09:25;;;;;;;;;;;;;;;31.09;52.45;98474.41;4992710;28;19913;-90
2023/09/08 12:11:50;;;;;;;;;;;;;;;31.55;52.06;98611.84;4992280;28;20004;-89
2023/09/08 12:14:16;;;;;;;;;;;;;;;31.23;53.68;98727.50;5006479;28;20010;-90
2023/09/08 12:16:41;;;;;;;;;;;;;;;31.67;52.19;98677.16;4992734;28;19948;-91
2023/09/08 12:19:07;;;;;;;;;;;;;;;31.95;51.62;98668.81;4997320;28;19943;-91
2023/09/08 12:21:35;;;;;;;;;;;;;;;31.89;53.18;98963.50;4989180;28;19920;-91
2023/09/08 12:24:00;;;;;;;;;;;;;;;32.77;52.57;99189.44;4989452;28;19918;-89
2023/09/08 12:26:26;;;;;;;;;;;;;;;32.07;52.59;98794.91;4996891;28;19918;-91
2023/09/08 12:28:51;;;;;;;;;;;;;;;32.26;52.65;98965.38;5007611;28;19917;-92